createdAt,value
2023-02-26T00:00:35.440Z,7.90
2023-02-26T00:03:06.076Z,5.23
2023-02-26T00:05:34.973Z,5.07
2023-02-26T00:08:06.318Z,5.13
2023-02-26T00:10:34.866Z,6.57
2023-02-26T00:13:04.336Z,6.50
2023-02-26T00:15:34.339Z,7.47
2023-02-26T00:18:09.268Z,6.07
2023-02-26T00:20:40.377Z,5.53
2023-02-26T00:23:11.539Z,7.13
2023-02-26T00:25:40.819Z,7.00
2023-02-26T00:28:10.299Z,6.50
2023-02-26T00:30:41.246Z,5.87
2023-02-26T00:33:12.546Z,5.37
2023-02-26T00:35:42.324Z,6.07
2023-02-26T00:38:13.362Z,5.07
2023-02-26T00:40:45.823Z,7.93
2023-02-26T00:43:18.556Z,4.83
2023-02-26T00:45:58.042Z,4.40
2023-02-26T00:48:49.334Z,6.40
2023-02-26T00:51:30.508Z,7.80
2023-02-26T00:54:06.310Z,4.70
2023-02-26T00:56:35.659Z,4.90
2023-02-26T00:59:04.507Z,5.43
2023-02-26T01:01:33.784Z,6.70
2023-02-26T01:04:05.814Z,4.70
2023-02-26T01:06:35.969Z,5.03
2023-02-26T01:09:12.900Z,5.50
2023-02-26T01:11:42.403Z,5.10
2023-02-26T01:14:11.915Z,7.93
2023-02-26T01:16:49.931Z,6.70
2023-02-26T01:19:30.325Z,4.13
2023-02-26T01:22:10.071Z,4.03
2023-02-26T01:24:39.022Z,5.87
2023-02-26T01:27:09.659Z,6.10
2023-02-26T01:29:39.359Z,4.73
2023-02-26T01:32:14.185Z,4.97
2023-02-26T01:34:49.261Z,5.50
2023-02-26T01:37:29.088Z,6.37
2023-02-26T01:40:19.716Z,5.30
2023-02-26T01:42:53.840Z,5.53
2023-02-26T01:45:28.477Z,6.77
2023-02-26T01:48:03.705Z,3.73
2023-02-26T01:50:37.876Z,7.13
2023-02-26T01:53:25.297Z,7.43
2023-02-26T01:55:59.237Z,7.47
2023-02-26T01:58:32.455Z,7.53
2023-02-26T02:01:02.432Z,5.10
2023-02-26T02:03:35.141Z,6.40
2023-02-26T02:06:09.203Z,9.87
2023-02-26T02:08:39.778Z,6.47
2023-02-26T02:11:13.241Z,6.37
2023-02-26T02:14:05.082Z,5.57
2023-02-26T02:16:41.649Z,4.80
2023-02-26T02:19:35.161Z,4.77
2023-02-26T02:22:27.395Z,5.43
2023-02-26T02:25:15.023Z,7.33
2023-02-26T02:27:52.269Z,3.00
2023-02-26T02:30:37.132Z,4.20
2023-02-26T02:33:14.420Z,6.23
2023-02-26T02:35:48.554Z,5.37
2023-02-26T02:38:22.179Z,6.13
2023-02-26T02:40:54.297Z,7.57
2023-02-26T02:43:28.314Z,5.07
2023-02-26T02:46:02.001Z,6.23
2023-02-26T02:48:36.554Z,7.03
2023-02-26T02:51:10.226Z,8.10
2023-02-26T02:53:44.706Z,6.10
2023-02-26T02:56:18.018Z,6.17
2023-02-26T02:58:51.555Z,7.47
2023-02-26T03:01:23.957Z,6.17
2023-02-26T03:03:59.911Z,4.87
2023-02-26T03:06:29.980Z,5.77
2023-02-26T03:08:59.015Z,6.57
2023-02-26T03:11:28.064Z,5.47
2023-02-26T03:13:57.766Z,6.50
2023-02-26T03:16:41.811Z,6.80
2023-02-26T03:19:20.061Z,6.03
2023-02-26T03:21:52.536Z,5.43
2023-02-26T03:24:28.466Z,7.43
2023-02-26T03:27:01.056Z,6.17
2023-02-26T03:29:36.783Z,7.33
2023-02-26T03:32:09.275Z,12.77
2023-02-26T03:34:46.069Z,4.57
2023-02-26T03:37:27.558Z,6.03
2023-02-26T03:39:59.951Z,6.00
2023-02-26T03:42:33.225Z,6.13
2023-02-26T03:45:05.383Z,7.33
2023-02-26T03:47:35.375Z,6.70
2023-02-26T03:50:09.231Z,6.83
2023-02-26T03:52:40.882Z,8.60
2023-02-26T03:55:16.995Z,6.90
2023-02-26T03:57:46.241Z,8.83
2023-02-26T04:00:17.005Z,6.17
2023-02-26T04:02:50.263Z,6.20
2023-02-26T04:05:23.493Z,5.70
2023-02-26T04:07:52.433Z,8.63
2023-02-26T04:10:24.243Z,6.67
2023-02-26T04:12:54.355Z,8.03
2023-02-26T04:15:23.676Z,4.77
2023-02-26T04:17:52.211Z,7.47
2023-02-26T04:20:23.962Z,5.83
2023-02-26T04:22:52.432Z,6.67
2023-02-26T04:25:20.829Z,6.50
2023-02-26T04:27:49.740Z,5.77
2023-02-26T04:30:18.841Z,6.23
2023-02-26T04:32:47.561Z,6.57
2023-02-26T04:35:16.471Z,8.27
2023-02-26T04:37:46.976Z,4.37
2023-02-26T04:40:15.750Z,4.50
2023-02-26T04:42:46.453Z,6.00
2023-02-26T04:45:16.564Z,8.27
2023-02-26T04:47:45.510Z,6.63
2023-02-26T04:50:14.499Z,6.70
2023-02-26T04:52:44.158Z,5.70
2023-02-26T04:55:15.993Z,7.37
2023-02-26T04:57:44.918Z,6.60
2023-02-26T05:00:15.597Z,6.43
2023-02-26T05:02:43.832Z,5.67
2023-02-26T05:05:12.311Z,4.97
2023-02-26T05:07:41.096Z,8.83
2023-02-26T05:10:10.937Z,5.53
2023-02-26T05:12:40.900Z,7.47
2023-02-26T05:15:10.091Z,6.87
2023-02-26T05:17:38.915Z,5.30
2023-02-26T05:20:10.205Z,6.83
2023-02-26T05:22:38.746Z,7.07
2023-02-26T05:25:08.297Z,5.17
2023-02-26T05:27:37.955Z,6.53
2023-02-26T05:30:10.092Z,7.33
2023-02-26T05:32:38.521Z,7.90
2023-02-26T05:35:08.041Z,6.27
2023-02-26T05:37:36.642Z,3.27
2023-02-26T05:40:05.397Z,4.50
2023-02-26T05:42:33.929Z,6.40
2023-02-26T05:45:02.489Z,5.40
2023-02-26T05:47:32.738Z,6.30
2023-02-26T05:50:00.954Z,4.23
2023-02-26T05:52:29.648Z,4.27
2023-02-26T05:54:58.201Z,4.63
2023-02-26T05:57:27.299Z,4.97
2023-02-26T05:59:56.009Z,5.37
2023-02-26T06:02:24.841Z,3.67
2023-02-26T06:04:54.877Z,5.50
2023-02-26T06:07:24.502Z,5.87
2023-02-26T06:09:52.767Z,9.93
2023-02-26T06:12:21.301Z,7.67
2023-02-26T06:14:49.753Z,6.10
2023-02-26T06:17:18.423Z,4.43
2023-02-26T06:19:46.815Z,6.30
2023-02-26T06:22:16.766Z,3.77
2023-02-26T06:24:45.280Z,5.87
2023-02-26T06:27:14.332Z,4.60
2023-02-26T06:29:42.918Z,4.47
2023-02-26T06:32:11.569Z,6.03
2023-02-26T06:34:40.619Z,6.07
2023-02-26T06:37:10.492Z,5.07
2023-02-26T06:39:40.594Z,4.50
2023-02-26T06:42:09.275Z,5.00
2023-02-26T06:44:37.934Z,5.63
2023-02-26T06:47:06.726Z,5.00
2023-02-26T06:49:35.812Z,5.03
2023-02-26T06:52:04.355Z,4.87
2023-02-26T06:54:36.645Z,4.97
2023-02-26T06:57:13.883Z,4.47
2023-02-26T06:59:51.165Z,4.47
2023-02-26T07:02:22.037Z,3.53
2023-02-26T07:04:54.312Z,5.00
2023-02-26T07:10:06.304Z,4.50
2023-02-26T07:13:16.341Z,3.27
2023-02-26T07:16:30.952Z,5.10
2023-02-26T07:19:05.517Z,4.20
2023-02-26T07:21:44.405Z,5.53
2023-02-26T07:24:40.208Z,4.40
2023-02-26T07:27:09.327Z,3.60
2023-02-26T07:29:41.701Z,4.83
2023-02-26T07:32:10.232Z,2.57
2023-02-26T07:34:38.502Z,3.73
2023-02-26T07:37:06.964Z,3.63
2023-02-26T07:39:37.278Z,4.40
2023-02-26T07:42:06.119Z,3.73
2023-02-26T07:44:34.725Z,4.20
2023-02-26T07:54:09.212Z,2.57
2023-02-26T07:56:39.661Z,1.77
2023-02-26T07:59:35.717Z,4.13
2023-02-26T08:02:04.987Z,4.03
2023-02-26T08:04:36.504Z,3.53
2023-02-26T08:07:05.335Z,3.67
2023-02-26T08:09:33.807Z,2.10
2023-02-26T08:12:02.462Z,2.73
2023-02-26T08:14:30.753Z,3.73
2023-02-26T08:17:01.332Z,4.60
2023-02-26T08:19:32.585Z,4.63
2023-02-26T08:22:02.879Z,2.37
2023-02-26T08:36:29.935Z,3.87
2023-02-26T08:41:52.806Z,1.90
2023-02-26T08:44:43.265Z,3.53
2023-02-26T08:51:16.802Z,3.27
2023-02-26T09:01:56.485Z,3.43
2023-02-26T09:11:40.041Z,2.50
2023-02-26T09:14:10.536Z,1.80
2023-02-26T09:16:41.617Z,3.13
2023-02-26T09:34:41.329Z,4.33
2023-02-26T09:37:44.937Z,3.87
2023-02-26T09:40:34.195Z,5.40
2023-02-26T09:43:28.173Z,3.70
2023-02-26T09:46:04.418Z,1.73
2023-02-26T09:48:56.167Z,2.37
2023-02-26T09:51:25.291Z,2.00
2023-02-26T09:53:55.158Z,4.20
2023-02-26T09:56:27.936Z,2.70
2023-02-26T09:58:58.929Z,3.47
2023-02-26T10:01:33.354Z,1.10
2023-02-26T10:04:20.735Z,2.57
2023-02-26T10:07:05.112Z,2.00
2023-02-26T10:09:45.352Z,3.60
2023-02-26T10:12:17.821Z,1.60
2023-02-26T10:14:54.009Z,2.03
2023-02-26T10:17:27.541Z,3.13
2023-02-26T10:20:02.056Z,3.27
2023-02-26T10:22:36.975Z,2.90
2023-02-26T10:25:11.845Z,4.60
2023-02-26T10:27:50.406Z,2.63
2023-02-26T10:53:27.102Z,3.07
2023-02-26T10:56:04.844Z,2.07
2023-02-26T10:58:33.348Z,1.53
2023-02-26T11:01:04.228Z,1.73
2023-02-26T11:03:37.411Z,3.13
2023-02-26T11:06:25.605Z,2.50
2023-02-26T11:08:58.802Z,2.67
2023-02-26T11:11:44.430Z,3.27
2023-02-26T11:14:14.728Z,1.90
2023-02-26T11:16:48.054Z,1.90
2023-02-26T11:19:18.617Z,1.97
2023-02-26T11:21:49.822Z,2.00
2023-02-26T11:24:35.406Z,1.57
2023-02-26T11:27:06.435Z,2.30
2023-02-26T11:29:40.028Z,3.00
2023-02-26T11:49:54.424Z,1.33
2023-02-26T11:53:20.237Z,3.17
2023-02-26T11:56:10.732Z,3.00
2023-02-26T11:58:41.136Z,1.70
2023-02-26T12:01:25.270Z,3.37
2023-02-26T12:04:09.401Z,1.40
2023-02-26T12:07:00.561Z,1.63
2023-02-26T12:09:29.634Z,1.43
2023-02-26T12:12:18.494Z,1.87
2023-02-26T12:15:06.668Z,1.87
2023-02-26T12:18:11.328Z,2.13
2023-02-26T12:20:48.076Z,1.17
2023-02-26T12:23:48.542Z,3.57
2023-02-26T12:26:29.057Z,4.50
2023-02-26T12:29:21.943Z,1.90
2023-02-26T12:32:18.831Z,1.70
2023-02-26T12:35:03.588Z,2.70
2023-02-26T12:37:46.103Z,3.37
2023-02-26T12:40:31.011Z,1.20
2023-02-26T12:43:05.423Z,1.60
2023-02-26T12:45:48.237Z,1.77
2023-02-26T12:48:45.351Z,2.07
2023-02-26T12:51:24.459Z,1.83
2023-02-26T12:54:23.045Z,2.40
2023-02-26T12:57:19.544Z,2.27
2023-02-26T13:00:05.259Z,2.63
2023-02-26T13:03:10.865Z,4.20
2023-02-26T13:05:54.402Z,3.90
2023-02-26T13:08:33.415Z,1.90
2023-02-26T13:11:15.610Z,2.43
2023-02-26T13:14:16.258Z,1.17
2023-02-26T13:16:53.613Z,1.60
2023-02-26T13:19:36.302Z,1.73
2023-02-26T13:22:11.212Z,2.10
2023-02-26T13:24:42.659Z,1.87
2023-02-26T13:27:14.873Z,1.73
2023-02-26T13:29:47.622Z,1.73
2023-02-26T13:32:20.544Z,1.60
2023-02-26T13:34:54.848Z,2.40
2023-02-26T13:37:27.480Z,2.67
2023-02-26T13:40:13.825Z,5.37
2023-02-26T13:42:49.693Z,2.77
2023-02-26T13:45:30.413Z,1.63
2023-02-26T13:48:11.507Z,1.77
2023-02-26T13:50:50.967Z,1.77
2023-02-26T13:53:57.735Z,2.70
2023-02-26T13:56:48.944Z,2.43
2023-02-26T13:59:47.888Z,1.13
2023-02-26T14:02:45.474Z,2.27
2023-02-26T14:05:38.891Z,3.27
2023-02-26T14:08:32.260Z,1.83
2023-02-26T14:11:05.316Z,3.40
2023-02-26T14:13:53.190Z,1.40
2023-02-26T14:16:36.760Z,3.47
2023-02-26T14:19:08.115Z,2.57
2023-02-26T14:21:57.289Z,2.47
2023-02-26T14:24:37.116Z,1.53
2023-02-26T14:27:23.827Z,1.67
2023-02-26T14:30:10.027Z,2.03
2023-02-26T14:32:50.022Z,3.00
2023-02-26T14:35:24.702Z,2.27
2023-02-26T14:38:00.618Z,2.27
2023-02-26T14:40:34.626Z,2.40
2023-02-26T14:43:07.945Z,1.50
2023-02-26T14:45:39.793Z,1.73
2023-02-26T14:48:29.484Z,1.53
2023-02-26T14:51:11.390Z,2.70
2023-02-26T14:54:00.993Z,1.70
2023-02-26T14:56:37.913Z,2.03
2023-02-26T14:59:31.026Z,2.73
2023-02-26T15:02:13.868Z,2.30
2023-02-26T15:05:05.971Z,3.70
2023-02-26T15:07:49.756Z,1.67
2023-02-26T15:10:34.903Z,1.93
2023-02-26T15:13:28.316Z,2.27
2023-02-26T15:16:03.721Z,2.27
2023-02-26T15:18:53.610Z,2.90
2023-02-26T15:21:33.096Z,2.23
2023-02-26T15:24:02.393Z,2.37
2023-02-26T15:26:35.016Z,1.47
2023-02-26T15:29:09.032Z,1.53
2023-02-26T15:31:43.152Z,1.67
2023-02-26T15:34:14.304Z,3.13
2023-02-26T15:36:47.110Z,2.50
2023-02-26T15:39:17.581Z,1.17
2023-02-26T15:41:49.207Z,1.90
2023-02-26T15:44:21.764Z,1.17
2023-02-26T15:46:54.932Z,2.10
2023-02-26T15:49:29.414Z,2.30
2023-02-26T15:52:00.762Z,1.63
2023-02-26T15:54:34.739Z,1.83
2023-02-26T15:57:04.693Z,1.23
2023-02-26T15:59:34.480Z,2.33
2023-02-26T16:02:04.399Z,1.00
2023-02-26T16:04:32.626Z,1.23
2023-02-26T16:07:02.941Z,1.70
2023-02-26T16:09:35.514Z,3.20
2023-02-26T16:12:09.163Z,2.73
2023-02-26T16:14:42.543Z,1.27
2023-02-26T16:17:16.251Z,2.37
2023-02-26T16:19:48.720Z,2.17
2023-02-26T16:22:28.953Z,1.20
2023-02-26T16:25:06.097Z,1.83
2023-02-26T16:27:35.985Z,1.50
2023-02-26T16:30:12.219Z,2.30
2023-02-26T16:32:40.565Z,0.83
2023-02-26T16:35:17.462Z,2.37
2023-02-26T16:37:50.051Z,5.33
2023-02-26T16:40:20.642Z,2.33
2023-02-26T16:42:56.413Z,1.37
2023-02-26T16:45:46.910Z,2.97
2023-02-26T16:48:18.325Z,2.93
2023-02-26T16:50:54.538Z,2.00
2023-02-26T16:53:30.534Z,2.13
2023-02-26T16:56:00.728Z,3.40
2023-02-26T16:58:30.693Z,4.37
2023-02-26T17:01:06.567Z,3.10
2023-02-26T17:03:34.916Z,2.33
2023-02-26T17:06:07.553Z,2.87
2023-02-26T17:08:46.977Z,2.57
2023-02-26T17:11:23.176Z,4.07
2023-02-26T17:14:11.019Z,2.43
2023-02-26T17:16:39.151Z,5.77
2023-02-26T17:19:09.473Z,2.37
2023-02-26T17:21:43.483Z,2.13
2023-02-26T17:24:18.443Z,4.83
2023-02-26T17:26:48.439Z,5.33
2023-02-26T17:29:23.105Z,6.53
2023-02-26T17:31:52.622Z,4.10
2023-02-26T17:34:22.327Z,1.43
2023-02-26T17:36:51.699Z,3.07
2023-02-26T17:39:21.683Z,4.30
2023-02-26T17:41:50.203Z,1.40
2023-02-26T17:44:19.813Z,3.27
2023-02-26T17:46:48.208Z,2.63
2023-02-26T17:49:16.618Z,2.33
2023-02-26T17:51:45.094Z,2.90
2023-02-26T17:54:13.565Z,2.67
2023-02-26T17:56:45.689Z,2.63
2023-02-26T17:59:14.433Z,3.33
2023-02-26T18:01:43.336Z,3.80
2023-02-26T18:04:13.286Z,3.13
2023-02-26T18:06:41.657Z,2.77
2023-02-26T18:09:12.023Z,2.70
2023-02-26T18:11:42.075Z,2.07
2023-02-26T18:14:12.423Z,2.83
2023-02-26T18:16:45.492Z,4.07
2023-02-26T18:19:15.799Z,3.03
2023-02-26T18:21:43.970Z,1.90
2023-02-26T18:24:12.179Z,2.37
2023-02-26T18:26:40.567Z,1.20
2023-02-26T18:29:32.166Z,3.30
2023-02-26T18:32:03.939Z,2.90
2023-02-26T18:34:33.290Z,3.30
2023-02-26T18:37:03.775Z,4.40
2023-02-26T18:39:34.401Z,2.13
2023-02-26T18:42:02.518Z,3.87
2023-02-26T18:44:33.209Z,2.83
2023-02-26T18:47:01.500Z,4.60
2023-02-26T18:49:52.098Z,8.60
2023-02-26T18:52:20.494Z,4.80
2023-02-26T18:54:49.082Z,10.60
2023-02-26T18:57:20.568Z,6.47
2023-02-26T18:59:51.251Z,6.27
2023-02-26T19:02:19.422Z,5.87
2023-02-26T19:10:05.463Z,3.23
2023-02-26T19:12:50.674Z,3.60
2023-02-26T19:15:27.277Z,2.97
2023-02-26T19:18:05.014Z,3.23
2023-02-26T19:20:33.448Z,5.53
2023-02-26T19:23:02.946Z,4.83
2023-02-26T19:25:31.805Z,3.93
2023-02-26T19:27:59.916Z,1.97
2023-02-26T19:30:29.681Z,2.63
2023-02-26T19:32:58.582Z,2.87
2023-02-26T19:35:30.795Z,3.83
2023-02-26T19:37:59.012Z,3.50
2023-02-26T19:40:28.257Z,5.63
2023-02-26T19:42:58.751Z,4.07
2023-02-26T19:45:26.875Z,2.87
2023-02-26T19:47:56.492Z,2.80
2023-02-26T19:50:25.923Z,2.90
2023-02-26T19:52:55.863Z,2.30
2023-02-26T19:55:24.274Z,1.90
2023-02-26T19:57:54.581Z,3.23
2023-02-26T20:00:23.646Z,1.37
2023-02-26T20:02:52.341Z,1.60
2023-02-26T20:05:21.998Z,2.13
2023-02-26T20:07:50.167Z,3.43
2023-02-26T20:10:19.266Z,3.20
2023-02-26T20:12:48.187Z,1.97
2023-02-26T20:15:16.987Z,2.70
2023-02-26T20:17:45.299Z,5.13
2023-02-26T20:20:13.929Z,2.43
2023-02-26T20:22:43.994Z,2.47
2023-02-26T20:25:12.375Z,3.13
2023-02-26T20:27:40.896Z,4.23
2023-02-26T20:30:10.637Z,1.80
2023-02-26T20:32:39.082Z,2.10
2023-02-26T20:35:08.225Z,4.03
2023-02-26T20:37:37.203Z,3.83
2023-02-26T20:40:14.297Z,2.27
2023-02-26T20:42:42.737Z,5.93
2023-02-26T20:45:13.509Z,2.30
2023-02-26T20:47:42.309Z,1.77
2023-02-26T20:50:12.074Z,6.97
2023-02-26T20:52:40.644Z,1.93
2023-02-26T20:55:11.154Z,4.80
2023-02-26T20:57:40.416Z,1.93
2023-02-26T21:00:15.827Z,3.77
2023-02-26T21:02:45.598Z,2.70
2023-02-26T21:05:15.684Z,3.20
2023-02-26T21:07:46.425Z,2.43
2023-02-26T21:10:19.742Z,2.80
2023-02-26T21:12:48.492Z,5.00
2023-02-26T21:15:19.055Z,2.97
2023-02-26T21:17:47.454Z,3.53
2023-02-26T21:20:18.734Z,2.53
2023-02-26T21:22:47.181Z,3.80
2023-02-26T21:25:17.365Z,4.50
2023-02-26T21:27:45.817Z,2.43
2023-02-26T21:30:34.743Z,2.57
2023-02-26T21:33:03.191Z,1.87
2023-02-26T21:35:31.514Z,2.83
2023-02-26T21:37:59.854Z,4.00
2023-02-26T21:40:29.547Z,2.43
2023-02-26T21:42:57.945Z,3.23
2023-02-26T21:45:26.504Z,4.00
2023-02-26T21:47:56.563Z,5.30
2023-02-26T21:50:24.602Z,4.10
2023-02-26T21:52:52.710Z,3.17
2023-02-26T21:55:21.252Z,2.47
2023-02-26T21:57:50.763Z,3.40
2023-02-26T22:00:20.381Z,2.40
2023-02-26T22:02:48.866Z,2.30
2023-02-26T22:05:17.059Z,1.67
2023-02-26T22:07:46.468Z,3.03
2023-02-26T22:10:14.980Z,3.50
2023-02-26T22:12:43.262Z,2.63
2023-02-26T22:15:15.974Z,2.50
2023-02-26T22:17:46.653Z,3.17
2023-02-26T22:20:15.252Z,3.87
2023-02-26T22:22:43.783Z,2.10
2023-02-26T22:25:13.925Z,2.83
2023-02-26T22:27:42.968Z,3.17
2023-02-26T22:30:14.037Z,2.10
2023-02-26T22:32:43.867Z,2.43
2023-02-26T22:35:14.186Z,1.43
2023-02-26T22:37:42.962Z,1.83
2023-02-26T22:40:13.247Z,3.13
2023-02-26T22:42:41.779Z,4.13
2023-02-26T22:45:17.274Z,2.90
2023-02-26T22:47:45.855Z,2.10
2023-02-26T22:50:14.752Z,2.50
2023-02-26T22:52:43.215Z,2.30
2023-02-26T22:55:12.879Z,2.03
2023-02-26T22:57:41.459Z,2.03
2023-02-26T23:00:14.848Z,3.40
2023-02-26T23:02:47.315Z,2.63
2023-02-26T23:05:19.706Z,2.03
2023-02-26T23:07:49.015Z,5.90
2023-02-26T23:10:20.683Z,3.13
2023-02-26T23:12:49.580Z,2.87
2023-02-26T23:15:17.933Z,2.27
2023-02-26T23:17:47.746Z,2.50
2023-02-26T23:20:17.707Z,2.83
2023-02-26T23:22:45.967Z,2.70
2023-02-26T23:25:14.241Z,2.13
2023-02-26T23:27:42.561Z,5.40
2023-02-26T23:30:12.313Z,2.53
2023-02-26T23:32:40.495Z,1.87
2023-02-26T23:35:11.072Z,4.27
2023-02-26T23:37:39.217Z,2.33
2023-02-26T23:40:08.952Z,4.90
2023-02-26T23:42:37.197Z,2.20
2023-02-26T23:45:08.080Z,1.90
2023-02-26T23:47:36.392Z,3.00
2023-02-26T23:50:05.197Z,4.10
2023-02-26T23:52:36.014Z,5.83
2023-02-26T23:55:06.556Z,2.97
2023-02-26T23:57:34.753Z,3.60
